Latest Weather Observations for Friendly Beaches

IDT60801

Issued at 7:05 am EST Wednesday 3 September 2014 (issued every 30 minutes, with the page automatically refreshed every 10 minutes)

About weather observations | Map of weather stations | Latest weather observations for TAS | Other Formats
Station Details ID: 092114 Name: FRIENDLY BEACHES Lat: -42.00 Lon: 148.28 Height: 55.0 m
Data from the previous 72 hours. | See also: Recent months at Friendly Beaches
Date/Time
EST
Temp
°C
App
Temp
°C
Dew
Point
Rel
Hum
%
Delta-T
°C
Wind Press
QNH
hPa
Press
MSL
hPa
Rain
since 9 am
mm
Dir
 
Spd
km/h
Gust
km/h
Spd
kts
Gust
kts
03/07:00am 4.9 1.1 1.7 80 1.3 W 11 15 6 8 1020.1 1020.1 0.0
03/06:30am 4.5 1.0 1.4 80 1.2 W 9 15 5 8 1019.8 1019.9 0.0
03/06:00am 5.0 1.2 1.5 78 1.4 W 11 15 6 8 1019.6 1019.7 0.0
03/05:30am 5.4 1.2 1.5 76 1.6 W 13 19 7 10 1019.6 1019.7 0.0
03/05:00am 5.7 1.0 1.2 73 1.8 W 15 22 8 12 1019.5 1019.6 0.0
03/04:30am 5.2 0.5 1.1 75 1.6 W 15 20 8 11 1019.4 1019.5 0.0
03/04:00am 4.9 1.0 1.0 76 1.5 W 11 19 6 10 1019.4 1019.5 0.0
03/03:30am 5.3 1.4 0.9 73 1.7 W 11 15 6 8 1019.4 1019.5 0.0
03/03:00am 5.3 0.6 1.1 74 1.6 W 15 20 8 11 1019.5 1019.6 0.0
03/02:30am 5.3 0.6 1.2 75 1.6 WSW 15 22 8 12 1019.3 1019.4 0.0
03/02:00am 5.7 0.7 1.6 75 1.6 WSW 17 24 9 13 1019.5 1019.6 0.0
03/01:30am 5.8 0.9 1.7 75 1.6 WSW 17 24 9 13 1020.0 1020.0 0.0
03/01:00am 6.0 1.1 2.3 77 1.5 WSW 17 24 9 13 1020.0 1020.0 0.0
03/12:30am 5.8 1.3 2.4 79 1.4 WSW 15 20 8 11 1020.0 1020.0 0.0
03/12:00am 5.8 1.7 2.4 79 1.4 WSW 13 22 7 12 1020.3 1020.3 0.0
 
Date/Time
EST
Temp
°C
App
Temp
°C
Dew
Point
Rel
Hum
%
Delta-T
°C
Wind Press
QNH
hPa
Press
MSL
hPa
Rain
since 9 am
mm
Dir
 
Spd
km/h
Gust
km/h
Spd
kts
Gust
kts
02/11:30pm 6.0 2.0 2.6 79 1.4 WSW 13 19 7 10 1020.3 1020.3 0.0
02/11:00pm 5.9 1.8 2.5 79 1.4 WSW 13 20 7 11 1020.2 1020.2 0.0
02/10:30pm 6.1 2.8 2.6 78 1.4 WSW 9 15 5 8 1020.3 1020.3 0.0
02/10:00pm 6.6 2.6 2.9 77 1.5 WSW 13 19 7 10 1020.3 1020.3 0.0
02/09:30pm 6.9 2.7 3.7 80 1.4 WSW 15 20 8 11 1020.2 1020.2 0.0
02/09:00pm 7.0 3.2 4.1 82 1.2 WSW 13 19 7 10 1020.2 1020.2 0.0
02/08:30pm 8.2 3.3 3.9 74 1.9 SW 19 32 10 17 1020.1 1020.1 0.0
02/08:00pm 8.2 4.5 4.2 76 1.7 SSW 13 24 7 13 1020.0 1020.0 0.0
02/07:30pm 8.5 4.4 4.3 75 1.8 SW 15 24 8 13 1019.5 1019.6 0.0
02/07:00pm 8.7 3.6 4.1 73 2.0 SSW 20 30 11 16 1019.3 1019.4 0.0
02/06:30pm 8.5 3.4 4.1 74 1.9 S 20 37 11 20 1019.1 1019.2 0.0
02/06:00pm 8.7 2.6 4.7 76 1.8 S 26 37 14 20 1018.5 1018.6 0.0
02/05:30pm 9.2 4.7 4.0 70 2.3 S 17 26 9 14 1018.0 1018.1 0.0
02/05:00pm 10.1 5.6 4.0 66 2.7 S 17 24 9 13 1017.6 1017.7 0.0
02/04:30pm 11.1 7.1 2.7 56 3.6 S 13 19 7 10 1017.2 1017.3 0.0
02/04:00pm 12.1 6.6 2.0 50 4.3 S 20 32 11 17 1017.0 1017.1 0.0
02/03:30pm 13.0 7.8 2.3 48 4.7 S 19 26 10 14 1016.7 1016.8 0.0
02/03:00pm 13.0 7.5 1.7 46 4.9 S 20 32 11 17 1016.6 1016.7 0.0
02/02:30pm 13.1 7.5 1.1 44 5.1 S 20 33 11 18 1016.6 1016.7 0.0
02/02:00pm 13.5 8.1 2.4 47 4.9 S 20 33 11 18 1016.5 1016.6 0.0
02/01:30pm 13.2 7.9 3.0 50 4.5 S 20 37 11 20 1016.4 1016.5 0.0
02/01:00pm 13.0 7.3 2.8 50 4.5 S 22 35 12 19 1016.4 1016.5 0.0
02/12:30pm 13.2 7.1 2.7 49 4.6 S 24 33 13 18 1016.7 1016.8 0.0
02/12:00pm 12.1 6.7 2.3 51 4.2 SSW 20 35 11 19 1017.1 1017.2 0.0
02/11:30am 11.9 5.4 2.4 52 4.1 SSW 26 44 14 24 1016.7 1016.8 0.0
02/11:00am 12.6 7.5 3.3 53 4.1 SSW 19 35 10 19 1016.9 1017.0 0.0
02/10:30am 11.9 5.9 3.4 56 3.8 SSW 24 39 13 21 1016.7 1016.8 0.0
02/10:00am 11.9 7.0 4.2 59 3.5 SSW 19 30 10 16 1016.2 1016.3 0.0
02/09:30am 11.0 6.4 3.5 60 3.3 SW 17 26 9 14 1016.2 1016.3 0.0
02/09:00am 10.4 5.3 3.9 64 2.9 SW 20 37 11 20 1016.0 1016.1 1.6
02/08:30am 9.7 4.6 4.1 68 2.5 SSW 20 39 11 21 1015.8 1015.9 1.6
02/08:00am 9.1 4.1 3.5 68 2.4 SW 19 33 10 18 1015.4 1015.5 1.6
02/07:30am 8.3 3.7 3.9 74 1.9 SW 17 30 9 16 1015.1 1015.2 1.6
02/07:00am 8.0 3.0 3.8 75 1.8 SW 19 30 10 16 1014.6 1014.6 1.6
02/06:30am 7.9 3.4 4.3 78 1.6 SW 17 26 9 14 1014.1 1014.1 1.6
02/06:00am 8.2 3.4 4.6 78 1.6 SW 19 32 10 17 1013.6 1013.6 1.6
02/05:30am 8.0 3.6 4.9 81 1.4 SSW 17 30 9 16 1013.2 1013.2 1.6
02/05:00am 8.2 3.8 4.6 78 1.6 SW 17 28 9 15 1012.8 1012.8 1.6
02/04:30am 8.1 3.7 4.7 79 1.5 SW 17 28 9 15 1012.4 1012.4 1.6
02/04:00am 7.4 3.4 4.9 84 1.1 WSW 15 24 8 13 1011.9 1011.9 1.6
02/03:30am 7.7 4.1 4.8 82 1.3 WSW 13 24 7 13 1011.7 1011.7 1.6
02/03:00am 7.8 4.1 4.7 81 1.4 SW 13 22 7 12 1011.3 1011.3 1.6
02/02:30am 8.2 3.6 5.7 84 1.1 SSW 19 35 10 19 1011.5 1011.5 1.4
02/02:00am 8.0 3.2 5.8 86 1.0 SSW 20 33 11 18 1011.4 1011.4 1.4
02/01:30am 8.2 4.4 6.0 86 1.0 SW 15 26 8 14 1011.3 1011.3 1.4
02/01:00am 8.4 4.6 5.9 84 1.1 SW 15 28 8 15 1011.0 1011.0 1.2
02/12:30am 8.3 4.7 5.1 80 1.4 SSW 13 19 7 10 1010.7 1010.7 1.2
02/12:00am 8.2 3.8 4.8 79 1.5 SSW 17 26 9 14 1010.5 1010.5 1.2
 
Date/Time
EST
Temp
°C
App
Temp
°C
Dew
Point
Rel
Hum
%
Delta-T
°C
Wind Press
QNH
hPa
Press
MSL
hPa
Rain
since 9 am
mm
Dir
 
Spd
km/h
Gust
km/h
Spd
kts
Gust
kts
01/11:30pm 8.2 4.9 6.5 89 0.8 SSW 13 24 7 13 1010.1 1010.1 1.2
01/11:00pm 8.1 4.1 6.7 91 0.6 SSW 17 30 9 16 1010.0 1010.0 1.2
01/10:30pm 7.9 3.8 6.4 90 0.7 SW 17 26 9 14 1009.7 1009.7 1.0
01/10:00pm 8.6 4.6 6.7 88 0.9 WSW 17 24 9 13 1009.4 1009.4 0.8
01/09:30pm 8.6 5.9 7.4 92 0.6 SW 11 19 6 10 1009.1 1009.1 0.6
01/09:00pm 9.4 5.8 6.7 83 1.3 SSW 15 22 8 12 1008.7 1008.7 0.0
01/08:30pm 9.9 5.8 6.1 77 1.8 SW 17 37 9 20 1008.4 1008.4 0.0
01/08:00pm 10.1 5.6 6.3 77 1.8 SW 19 35 10 19 1007.7 1007.7 0.0
01/07:30pm 10.3 6.7 6.6 78 1.7 SW 15 26 8 14 1007.1 1007.1 0.0
01/07:00pm 10.3 6.7 6.6 78 1.7 SW 15 26 8 14 1006.6 1006.6 0.0
01/06:30pm 10.3 5.3 6.6 78 1.7 SW 22 41 12 22 1005.8 1005.8 0.0
01/06:00pm 10.3 6.0 7.2 81 1.5 SW 19 33 10 18 1005.1 1005.1 0.0
01/05:30pm 10.2 6.5 8.1 87 1.0 SW 17 32 9 17 1004.2 1004.2 0.0
01/05:00pm 10.8 5.1 8.4 85 1.2 SSW 28 43 15 23 1003.7 1003.7 0.0
01/04:36pm 13.8 7.5 7.3 65 3.2 WSW 30 52 16 28 1002.5 1002.5 0.0
01/04:30pm 14.5 10.0 7.1 61 3.6 NW 20 37 11 20 1002.3 1002.3 0.0
01/04:00pm 14.3 12.6 8.3 67 3.0 W 7 15 4 8 1001.8 1001.8 0.0
01/03:30pm 15.8 13.5 7.3 57 4.2 NNW 9 19 5 10 1001.4 1001.4 0.0
01/03:00pm 16.3 13.2 7.3 55 4.5 NNW 13 26 7 14 1001.4 1001.4 0.0
01/02:30pm 16.2 12.3 6.9 54 4.6 NNW 17 32 9 17 1001.5 1001.5 0.0
01/02:00pm 16.4 12.0 6.5 52 4.9 NNW 19 41 10 22 1001.2 1001.3 0.0
01/01:30pm 16.4 12.4 6.8 53 4.7 NNW 17 32 9 17 1001.9 1001.9 0.0
01/01:00pm 16.6 11.9 6.1 50 5.1 N 20 50 11 27 1002.2 1002.2 0.0
01/12:30pm 16.7 12.0 5.9 49 5.2 NNW 20 52 11 28 1002.6 1002.6 0.0
01/12:00pm 16.9 13.2 6.1 49 5.3 NNW 15 28 8 15 1002.8 1002.8 0.0
01/11:30am 17.7 12.3 6.3 47 5.6 NNW 24 39 13 21 1003.3 1003.3 0.0
01/11:00am 17.4 13.0 6.6 49 5.4 N 19 33 10 18 1003.8 1003.8 0.0
01/10:30am 17.4 13.6 7.5 52 5.0 N 17 22 9 12 1004.0 1004.0 0.0
01/10:00am 17.3 12.5 7.4 52 5.0 N 22 37 12 20 1004.2 1004.2 0.0
01/09:30am 16.2 11.0 7.2 55 4.5 N 24 43 13 23 1004.8 1004.8 0.0
01/09:00am 15.2 11.6 8.4 64 3.5 N 17 24 9 13 1005.0 1005.0 0.0
01/08:30am 14.1 11.0 8.9 71 2.6 N 15 22 8 12 1005.0 1005.0 0.0
01/08:00am 15.1 11.3 7.6 61 3.7 N 17 28 9 15 1005.3 1005.3 0.0
01/07:30am 13.8 10.0 7.6 66 3.1 N 17 26 9 14 1005.7 1005.7 0.0
01/07:00am 13.5 9.3 7.5 67 3.0 N 19 26 10 14 1005.6 1005.6 0.0
01/06:30am 12.6 8.9 9.4 81 1.6 NNE 19 28 10 15 1006.1 1006.1 0.0
01/06:00am 12.6 8.9 9.4 81 1.6 NNE 19 28 10 15 1006.1 1006.1 0.0
01/05:30am 12.7 9.0 9.3 80 1.7 NNE 19 28 10 15 1006.2 1006.2 0.0
01/05:00am 12.9 9.2 9.4 79 1.8 NNE 19 30 10 16 1006.2 1006.2 0.0
01/04:30am 14.2 9.9 6.8 61 3.6 N 19 28 10 15 1006.7 1006.7 0.0
01/04:00am 14.4 9.5 6.7 60 3.8 N 22 35 12 19 1006.7 1006.7 0.0
01/03:30am 14.7 9.8 6.8 59 3.9 N 22 32 12 17 1006.9 1006.9 0.0
01/03:00am 14.1 10.3 7.4 64 3.3 N 17 28 9 15 1007.3 1007.3 0.0
01/02:30am 12.8 9.7 8.7 76 2.1 N 15 20 8 11 1007.8 1007.8 0.0
01/02:00am 13.6 10.1 7.4 66 3.0 N 15 22 8 12 1008.5 1008.5 0.0
01/01:30am 13.5 10.5 7.5 67 2.9 N 13 20 7 11 1009.3 1009.4 0.0
01/01:00am 13.3 10.6 7.5 68 2.8 N 11 15 6 8 1009.5 1009.6 0.0
01/12:30am 13.9 10.4 7.2 64 3.3 N 15 24 8 13 1009.5 1009.6 0.0
01/12:00am 14.0 10.5 7.3 64 3.3 N 15 26 8 14 1009.7 1009.8 0.0
 
Date/Time
EST
Temp
°C
App
Temp
°C
Dew
Point
Rel
Hum
%
Delta-T
°C
Wind Press
QNH
hPa
Press
MSL
hPa
Rain
since 9 am
mm
Dir
 
Spd
km/h
Gust
km/h
Spd
kts
Gust
kts
31/11:30pm 13.2 10.9 7.6 69 2.7 N 9 15 5 8 1010.1 1010.2 0.0
31/11:00pm 13.2 10.7 8.1 71 2.5 N 11 19 6 10 1010.3 1010.4 0.0
31/10:30pm 12.5 12.0 8.0 74 2.2 CALM 0 4 0 2 1010.9 1011.0 0.0
31/10:00pm 12.1 11.3 8.0 76 2.0 NNE 2 6 1 3 1011.2 1011.3 0.0
31/09:30pm 12.2 10.7 8.5 78 1.8 NNE 6 9 3 5 1011.3 1011.4 0.0
31/09:00pm 12.2 10.3 8.9 80 1.7 NNE 9 15 5 8 1011.5 1011.6 0.0
31/08:30pm 12.2 10.8 8.9 80 1.7 NE 6 9 3 5 1011.7 1011.8 0.0
31/08:00pm 13.4 11.9 9.1 75 2.2 N 7 13 4 7 1012.1 1012.2 0.0
31/07:30pm 12.4 10.8 8.9 79 1.8 N 7 9 4 5 1012.0 1012.1 0.0
31/07:00pm 13.2 11.8 8.9 75 2.2 NNE 6 9 3 5 1012.1 1012.2 0.0
31/06:30pm 14.4 12.5 9.0 70 2.8 NNW 9 17 5 9 1012.0 1012.1 0.0
31/06:00pm 14.2 12.0 9.4 73 2.5 NW 11 15 6 8 1012.0 1012.1 0.0
31/05:30pm 15.0 13.3 9.8 71 2.7 WNW 9 17 5 9 1012.0 1012.1 0.0
31/05:00pm 15.3 13.6 9.9 70 2.8 N 9 13 5 7 1012.0 1012.1 0.0
31/04:30pm 15.9 13.4 9.8 67 3.2 N 13 20 7 11 1012.1 1012.2 0.0
31/04:00pm 17.7 16.6 10.6 63 3.8 NNE 7 13 4 7 1012.2 1012.3 0.0
31/03:30pm 18.8 16.5 10.4 58 4.5 NNE 13 20 7 11 1012.4 1012.5 0.0
31/03:00pm 19.6 18.8 11.1 58 4.7 NE 6 11 3 6 1012.8 1012.9 0.0
31/02:30pm 18.9 18.4 10.7 59 4.4 E 4 9 2 5 1013.0 1013.1 0.0
31/02:00pm 18.5 16.9 11.6 64 3.8 NNE 11 19 6 10 1013.4 1013.5 0.0
31/01:30pm 17.6 16.9 10.0 61 4.0 NW 4 13 2 7 1013.9 1014.0 0.0
31/01:00pm 18.4 16.8 8.9 54 5.0 NW 7 13 4 7 1014.3 1014.4 0.0
31/12:30pm 16.9 14.5 10.1 64 3.6 NE 13 19 7 10 1014.8 1014.9 0.0
31/12:00pm 15.3 12.9 8.8 65 3.3 NNE 11 17 6 9 1015.5 1015.6 0.0
31/11:30am 15.1 12.6 8.1 63 3.5 NW 11 24 6 13 1015.9 1016.0 0.0
31/11:00am 14.6 11.5 7.2 61 3.6 NW 13 20 7 11 1016.3 1016.4 0.0
31/10:30am 15.4 12.7 7.2 58 4.1 NNW 11 19 6 10 1016.8 1016.9 0.0
31/10:00am 15.1 11.6 7.4 60 3.8 N 15 24 8 13 1017.3 1017.4 0.0
31/09:30am 13.3 10.9 7.1 66 3.0 N 9 19 5 10 1017.6 1017.7 0.0
31/09:00am 14.1 11.0 7.4 64 3.3 NNE 13 20 7 11 1017.8 1017.9 0.0
31/08:30am 12.5 10.2 7.4 71 2.5 NNE 9 15 5 8 1018.2 1018.3 0.0
31/08:00am 11.2 9.2 6.1 71 2.4 N 6 15 3 8 1018.4 1018.5 0.0
31/07:30am 10.0 7.2 5.2 72 2.2 N 9 19 5 10 1018.4 1018.5 0.0

Other Formats:

Comma delimited format used in spreadsheet applications
http://www.bom.gov.au/fwo/IDT60801/IDT60801.94987.axf

JavaScript Object Notation format (JSON) in row-major order
http://www.bom.gov.au/fwo/IDT60801/IDT60801.94987.json